Time;durP1;ratioP1;P1;durP2;ratioP2;P2;SDS_P1;SDS_P2;PMS_P1;PMS_P2;Temp;Humidity;BMP_temperature;BMP_pressure;BME280_temperature;BME280_humidity;BME280_pressure;Samples;Min_cycle;Max_cycle;Signal;HPM_P1;HPM_P2
2022/04/21 00:02:14;;;;;;;3.88;2.90;;;;;;;10.57;59.85;101414.78;5115110;28;20024;-33
2022/04/21 00:04:39;;;;;;;3.00;2.70;;;;;;;10.43;60.06;101401.56;5114514;28;20032;-33
2022/04/21 00:07:05;;;;;;;4.27;3.40;;;;;;;10.41;59.57;101401.78;5113701;28;20040;-33
2022/04/21 00:09:30;;;;;;;4.97;2.97;;;;;;;10.41;59.87;101401.78;5114369;28;20042;-33
2022/04/21 00:11:56;;;;;;;4.18;2.75;;;;;;;10.47;60.32;101405.47;5115431;28;20265;-33
2022/04/21 00:14:21;;;;;;;6.50;3.30;;;;;;;10.46;60.35;101401.13;5114522;28;20142;-33
2022/04/21 00:16:46;;;;;;;3.27;2.60;;;;;;;10.47;60.40;101398.19;5113708;28;20084;-33
2022/04/21 00:19:12;;;;;;;3.60;2.70;;;;;;;10.23;61.42;101394.34;5114530;28;20032;-33
2022/04/21 00:24:21;;;;;;;4.55;2.85;;;;;;;10.24;61.21;101397.91;5114555;28;20066;-33
2022/04/21 00:26:47;;;;;;;5.37;2.90;;;;;;;10.32;60.59;101403.06;5115172;28;20111;-33
2022/04/21 00:29:13;;;;;;;5.60;3.43;;;;;;;10.37;59.78;101402.44;5114273;28;20074;-33
2022/04/21 00:31:39;;;;;;;6.18;3.00;;;;;;;10.31;60.71;101393.31;5114512;28;20028;-33
2022/04/21 00:34:04;;;;;;;3.33;2.78;;;;;;;10.36;61.03;101401.59;5113879;28;20042;-33
2022/04/21 00:36:29;;;;;;;3.40;2.53;;;;;;;10.28;60.25;101396.44;5113920;28;20031;-33
2022/04/21 00:38:55;;;;;;;4.20;2.77;;;;;;;10.19;61.33;101408.50;5114903;28;20024;-34
2022/04/21 00:41:20;;;;;;;3.77;2.60;;;;;;;10.10;61.25;101407.91;5114636;28;20031;-34
2022/04/21 00:43:46;;;;;;;4.85;2.80;;;;;;;10.01;61.76;101396.53;5114088;28;20027;-34
2022/04/21 00:46:17;;;;;;;5.13;2.83;;;;;;;9.93;61.87;101402.16;5114060;28;20130;-34
2022/04/21 00:48:44;;;;;;;2.83;2.55;;;;;;;9.94;62.66;101400.28;5113416;28;20675;-34
2022/04/21 00:51:10;;;;;;;4.22;3.30;;;;;;;9.83;62.62;101401.78;5113827;28;20070;-34
2022/04/21 00:53:40;;;;;;;6.32;3.10;;;;;;;9.74;63.41;101395.78;5113933;28;20106;-33
2022/04/21 00:56:07;;;;;;;5.32;2.92;;;;;;;9.71;63.38;101407.00;5113409;28;20027;-33
2022/04/21 00:58:35;;;;;;;4.55;3.17;;;;;;;9.65;64.41;101401.59;5113804;28;20084;-34
2022/04/21 01:01:01;;;;;;;4.85;3.35;;;;;;;9.57;64.19;101402.69;5113802;28;20028;-33
2022/04/21 01:03:26;;;;;;;4.18;2.97;;;;;;;9.64;64.20;101400.78;5112135;28;20071;-34
2022/04/21 01:05:51;;;;;;;5.22;3.45;;;;;;;9.54;64.29;101400.38;5113798;28;20035;-33
2022/04/21 01:08:17;;;;;;;4.20;3.00;;;;;;;9.52;64.72;101403.31;5113775;28;20027;-34
2022/04/21 01:10:43;;;;;;;3.77;3.07;;;;;;;9.49;64.35;101402.88;5113686;28;20028;-33
2022/04/21 01:13:10;;;;;;;4.45;3.33;;;;;;;9.41;65.23;101401.22;5113646;28;20257;-33
2022/04/21 01:15:36;;;;;;;6.95;3.50;;;;;;;9.24;66.60;101405.41;5113747;28;20425;-33
2022/04/21 01:18:03;;;;;;;6.15;3.20;;;;;;;9.17;66.26;101401.88;5113571;28;20028;-33
2022/04/21 01:20:29;;;;;;;6.78;3.53;;;;;;;9.05;66.57;101390.88;5114111;28;20409;-33
2022/04/21 01:22:55;;;;;;;5.07;3.42;;;;;;;9.17;66.09;101397.31;5113612;28;20023;-33
2022/04/21 01:25:21;;;;;;;5.55;3.28;;;;;;;9.15;65.74;101391.28;5113635;28;20034;-34
2022/04/21 01:27:47;;;;;;;;;;;;;;;9.29;64.76;101390.25;5113960;28;20038;-33
2022/04/21 01:30:13;;;;;;;5.27;3.27;;;;;;;9.18;65.86;101390.06;5114144;28;19912;-33
2022/04/21 01:32:43;;;;;;;4.90;3.30;;;;;;;9.13;67.09;101381.75;5114063;28;20038;-33
2022/04/21 01:35:09;;;;;;;4.32;3.33;;;;;;;9.23;65.77;101379.47;5113721;28;20091;-33
2022/04/21 01:43:13;;;;;;;5.15;3.42;;;;;;;8.98;67.04;101382.81;5051067;28;20083;-33
2022/04/21 01:45:39;;;;;;;4.23;3.53;;;;;;;8.87;66.87;101366.38;5050654;28;20041;-33
2022/04/21 01:48:04;;;;;;;4.75;3.03;;;;;;;9.00;66.77;101372.63;5050355;28;20116;-33
2022/04/21 01:50:30;;;;;;;5.82;3.38;;;;;;;8.93;66.44;101377.19;5050666;28;20055;-33
2022/04/21 01:52:57;;;;;;;4.32;3.22;;;;;;;8.94;66.88;101389.66;5050432;28;20056;-33
2022/04/21 01:55:23;;;;;;;3.95;3.10;;;;;;;8.87;66.95;101379.88;5050821;28;20550;-33
2022/04/21 01:57:48;;;;;;;4.05;3.20;;;;;;;8.90;67.34;101380.31;5050511;28;20053;-33
2022/04/21 02:00:14;;;;;;;3.97;3.57;;;;;;;8.83;66.40;101368.66;5050320;28;20112;-34
2022/04/21 02:02:39;;;;;;;4.38;3.83;;;;;;;8.78;67.40;101376.53;5050234;28;20029;-34
2022/04/21 02:05:05;;;;;;;5.73;3.53;;;;;;;8.69;67.47;101380.50;5050315;28;20048;-33
2022/04/21 02:07:30;;;;;;;4.38;3.40;;;;;;;8.72;67.76;101377.38;5052078;28;20445;-33
2022/04/21 02:09:56;;;;;;;5.37;3.03;;;;;;;8.72;67.30;101374.69;5054235;28;20041;-33
2022/04/21 02:12:23;;;;;;;5.50;3.45;;;;;;;8.67;67.22;101383.38;5053915;28;20064;-33
2022/04/21 02:14:49;;;;;;;6.43;3.35;;;;;;;8.68;67.26;101381.50;5054650;28;20037;-33
2022/04/21 02:17:14;;;;;;;4.90;3.42;;;;;;;8.79;67.12;101378.22;5095528;28;20050;-33
2022/04/21 02:19:40;;;;;;;4.17;3.50;;;;;;;8.75;67.66;101383.19;5116670;28;20097;-33
2022/04/21 02:22:05;;;;;;;6.85;3.55;;;;;;;8.84;66.75;101385.69;5117041;28;20102;-33
2022/04/21 02:24:31;;;;;;;8.20;3.53;;;;;;;8.73;67.20;101377.16;5117271;28;20028;-33
2022/04/21 02:26:56;;;;;;;4.72;3.15;;;;;;;8.72;66.97;101369.28;5117555;28;20097;-33
2022/04/21 02:29:22;;;;;;;3.83;3.42;;;;;;;8.77;67.61;101383.81;5116667;28;20031;-33
2022/04/21 02:31:47;;;;;;;5.70;3.70;;;;;;;8.71;66.67;101383.81;5116685;28;20027;-33
2022/04/21 02:34:12;;;;;;;4.73;3.57;;;;;;;8.69;66.53;101384.03;5116621;28;20028;-33
2022/04/21 02:36:38;;;;;;;4.17;3.57;;;;;;;8.68;66.93;101370.72;5117183;28;20019;-33
2022/04/21 02:39:04;;;;;;;;;;;;;;;8.88;65.11;101378.84;5116918;28;20030;-33
2022/04/21 02:41:29;;;;;;;4.55;3.25;;;;;;;8.70;66.68;101382.16;5116221;28;19912;-33
2022/04/21 02:43:54;;;;;;;3.63;3.33;;;;;;;8.66;66.24;101376.34;5116738;28;20324;-33
2022/04/21 02:46:28;;;;;;;4.00;3.47;;;;;;;8.66;66.50;101376.34;5116337;28;20058;-33
2022/04/21 02:48:59;;;;;;;6.38;3.58;;;;;;;8.61;65.82;101376.13;5116565;28;20027;-33
2022/04/21 02:51:25;;;;;;;6.20;3.25;;;;;;;8.59;66.07;101370.13;5115972;28;20482;-33
2022/04/21 02:59:19;;;;;;;4.93;3.58;;;;;;;8.54;66.00;101383.38;5116724;28;20045;-33
2022/04/21 03:01:44;;;;;;;3.55;3.25;;;;;;;8.49;65.72;101377.75;5115374;28;20520;-33
2022/04/21 03:04:09;;;;;;;4.27;3.40;;;;;;;8.52;66.02;101374.66;5114392;28;20078;-33
2022/04/21 03:06:35;;;;;;;4.93;3.33;;;;;;;8.57;65.03;101388.34;5115986;28;20024;-33
2022/04/21 03:09:00;;;;;;;4.23;3.57;;;;;;;8.55;65.27;101381.50;5115884;28;20063;-33
2022/04/21 03:11:25;;;;;;;4.93;3.23;;;;;;;8.41;66.30;101370.69;5116717;28;20110;-33
2022/04/21 03:13:51;;;;;;;6.57;3.50;;;;;;;8.52;66.75;101380.03;5116189;28;20106;-34
2022/04/21 03:16:16;;;;;;;3.90;3.40;;;;;;;8.40;65.42;101363.66;5115839;28;20036;-33
2022/04/21 03:18:41;;;;;;;3.87;3.37;;;;;;;8.47;65.40;101375.25;5116468;28;20032;-33
2022/04/21 03:26:34;;;;;;;3.97;3.33;;;;;;;8.28;66.10;101367.91;5116121;28;20035;-33
2022/04/21 03:28:59;;;;;;;5.47;3.43;;;;;;;8.29;65.57;101364.19;5115931;28;20035;-33
2022/04/21 03:31:25;;;;;;;3.80;3.27;;;;;;;8.30;65.91;101376.66;5116396;28;20337;-33
2022/04/21 03:33:50;;;;;;;5.47;3.50;;;;;;;8.27;65.93;101377.03;5115497;28;20024;-33
2022/04/21 03:36:16;;;;;;;3.77;3.40;;;;;;;8.18;65.69;101362.09;5115705;28;20532;-33
2022/04/21 03:38:41;;;;;;;4.07;3.42;;;;;;;8.23;66.38;101365.00;5115388;28;20364;-33
2022/04/21 03:41:07;;;;;;;6.73;3.60;;;;;;;8.22;65.65;101377.66;5115870;28;20028;-34
2022/04/21 03:43:32;;;;;;;4.60;3.40;;;;;;;8.17;65.65;101382.00;5115517;28;20110;-33
2022/04/21 03:45:57;;;;;;;5.53;3.63;;;;;;;8.14;66.29;101361.66;5115778;28;20028;-33
2022/04/21 03:48:23;;;;;;;5.37;3.50;;;;;;;8.20;66.08;101379.72;5115459;28;20459;-33
2022/04/21 03:50:49;;;;;;;6.53;3.85;;;;;;;8.11;65.72;101374.72;5114924;28;20472;-33
2022/04/21 03:53:14;;;;;;;4.20;3.80;;;;;;;7.99;66.64;101369.88;5113953;28;20030;-33
2022/04/21 03:55:39;;;;;;;4.03;3.63;;;;;;;8.09;66.31;101371.38;5115056;28;20383;-33
2022/04/21 03:58:05;;;;;;;4.63;3.50;;;;;;;8.07;66.16;101362.69;5114929;28;20107;-33
2022/04/21 04:00:30;;;;;;;3.83;3.53;;;;;;;8.11;65.88;101372.03;5114177;28;20035;-33
2022/04/21 04:02:55;;;;;;;4.93;3.70;;;;;;;8.00;66.44;101376.97;5114797;28;20024;-33
2022/04/21 04:05:21;;;;;;;4.03;3.47;;;;;;;8.01;66.50;101380.47;5115098;28;20028;-33
2022/04/21 04:13:14;;;;;;;4.07;3.67;;;;;;;7.94;66.27;101375.06;5114987;28;20153;-33
2022/04/21 04:15:39;;;;;;;3.93;3.20;;;;;;;7.97;65.79;101376.53;5115250;28;20077;-33
2022/04/21 04:18:05;;;;;;;5.23;3.53;;;;;;;7.99;65.68;101377.97;5114712;28;20031;-33
2022/04/21 04:20:30;;;;;;;3.90;3.33;;;;;;;7.95;66.13;101379.44;5114488;28;20062;-33
2022/04/21 04:22:55;;;;;;;4.10;3.70;;;;;;;7.87;66.34;101376.91;5114099;28;20352;-33
2022/04/21 04:25:21;;;;;;;6.47;3.43;;;;;;;7.87;66.23;101381.47;5114785;28;20479;-33
2022/04/21 04:27:46;;;;;;;4.77;3.77;;;;;;;7.83;66.00;101377.50;5114633;28;20032;-33
2022/04/21 04:30:11;;;;;;;4.63;3.30;;;;;;;7.77;66.41;101379.13;5113650;28;20027;-33
2022/04/21 04:32:37;;;;;;;4.17;3.77;;;;;;;7.74;66.78;101376.81;5114537;28;20028;-33
2022/04/21 04:35:04;;;;;;;4.57;3.70;;;;;;;7.75;67.20;101386.56;5114523;28;20288;-33
2022/04/21 04:37:29;;;;;;;4.22;3.47;;;;;;;7.73;66.87;101369.78;5114354;28;20046;-33
2022/04/21 04:39:55;;;;;;;3.83;3.53;;;;;;;7.79;66.82;101379.75;5114371;28;20024;-33
2022/04/21 04:42:22;;;;;;;3.75;3.33;;;;;;;7.69;67.53;101371.22;5113602;28;20036;-33
2022/04/21 04:44:49;;;;;;;4.05;3.65;;;;;;;7.77;66.29;101391.75;5114315;28;20036;-33
2022/04/21 04:47:15;;;;;;;5.30;3.65;;;;;;;7.74;66.02;101385.72;5114325;28;20023;-34
2022/04/21 04:49:41;;;;;;;5.00;3.92;;;;;;;7.84;66.85;101390.75;5113942;28;20425;-33
2022/04/21 04:52:06;;;;;;;5.15;3.63;;;;;;;7.89;66.70;101385.59;5113638;28;20532;-33
2022/04/21 04:54:32;;;;;;;4.73;3.37;;;;;;;7.96;66.18;101391.84;5113561;28;20032;-33
2022/04/21 04:56:57;;;;;;;5.83;3.30;;;;;;;7.92;66.32;101390.59;5114048;28;20152;-34
2022/04/21 04:59:23;;;;;;;5.63;3.83;;;;;;;7.99;66.58;101387.91;5113772;28;20455;-34
2022/04/21 05:01:48;;;;;;;6.32;3.80;;;;;;;7.87;66.17;101392.22;5113382;28;20027;-34
2022/04/21 05:04:16;;;;;;;4.50;3.63;;;;;;;7.90;65.71;101402.56;5113658;28;20034;-34
2022/04/21 05:06:42;;;;;;;4.97;3.70;;;;;;;7.83;66.15;101399.88;5114480;28;20353;-34
2022/04/21 05:09:10;;;;;;;6.93;3.85;;;;;;;7.73;67.24;101385.94;5113342;28;20130;-34
2022/04/21 05:11:37;;;;;;;5.57;4.00;;;;;;;7.74;66.65;101399.19;5114086;28;20483;-34
2022/04/21 05:14:04;;;;;;;4.63;3.85;;;;;;;7.72;67.16;101400.44;5113891;28;20027;-34
2022/04/21 05:16:29;;;;;;;6.45;4.22;;;;;;;7.65;66.86;101394.16;5112060;28;20057;-33
2022/04/21 05:18:56;;;;;;;6.65;4.15;;;;;;;7.62;68.19;101398.09;5113270;28;20020;-33
2022/04/21 05:21:23;;;;;;;4.35;3.85;;;;;;;7.62;67.75;101392.72;5113096;28;20127;-33
2022/04/21 05:23:53;;;;;;;5.60;3.78;;;;;;;7.80;67.14;101389.47;5113816;28;20039;-33
2022/04/21 05:26:19;;;;;;;4.07;3.67;;;;;;;7.93;66.59;101381.47;5113511;28;20482;-33
2022/04/21 05:28:45;;;;;;;4.65;3.50;;;;;;;7.99;66.86;101380.66;5113163;28;20023;-33
2022/04/21 05:31:11;;;;;;;4.90;3.63;;;;;;;8.08;67.44;101388.56;5114124;28;20031;-33
2022/04/21 05:33:37;;;;;;;4.88;3.88;;;;;;;8.26;66.36;101381.59;5113324;28;20023;-33
2022/04/21 05:36:04;;;;;;;4.38;3.75;;;;;;;8.26;66.05;101380.78;5113366;28;20121;-33
2022/04/21 05:38:30;;;;;;;4.53;3.83;;;;;;;8.26;65.79;101386.16;5113025;28;20551;-33
2022/04/21 05:40:55;;;;;;;;;;;;;;;8.41;65.59;101386.88;5114169;28;20027;-32
2022/04/21 05:43:28;;;;;;;9.13;3.70;;;;;;;8.31;65.33;101386.38;5116121;28;19991;-33
2022/04/21 05:45:53;;;;;;;4.95;3.42;;;;;;;8.32;66.54;101388.03;5117346;28;20057;-33
2022/04/21 05:48:19;;;;;;;5.47;4.07;;;;;;;8.35;66.47;101389.53;5117331;28;20063;-33
2022/04/21 05:50:48;;;;;;;5.10;4.50;;;;;;;8.43;66.66;101392.88;5117961;28;20181;-33
2022/04/21 05:53:24;;;;;;;5.10;3.83;;;;;;;8.45;66.16;101388.13;5117464;28;20102;-34
2022/04/21 05:55:51;;;;;;;7.40;3.90;;;;;;;8.58;66.40;101394.56;5117210;28;20055;-33
2022/04/21 05:58:17;;;;;;;5.93;4.05;;;;;;;8.63;65.92;101392.91;5117584;28;20448;-33
2022/04/21 06:00:43;;;;;;;4.97;4.10;;;;;;;8.65;65.45;101382.75;5117085;28;20035;-33
2022/04/21 06:03:08;;;;;;;6.57;3.90;;;;;;;8.81;65.75;101384.22;5116865;28;20026;-33
2022/04/21 06:05:33;;;;;;;6.18;4.35;;;;;;;8.78;65.80;101379.25;5117334;28;20034;-33
2022/04/21 06:07:59;;;;;;;6.53;4.67;;;;;;;8.74;65.83;101380.72;5117424;28;20032;-33
2022/04/21 06:10:24;;;;;;;6.23;4.40;;;;;;;8.88;66.08;101384.22;5117179;28;20430;-33
2022/04/21 06:12:50;;;;;;;7.95;4.40;;;;;;;8.86;66.29;101367.44;5116543;28;20278;-33
2022/04/21 06:15:16;;;;;;;5.13;4.53;;;;;;;8.98;65.81;101381.97;5116838;28;20032;-34
2022/04/21 06:17:42;;;;;;;9.27;5.00;;;;;;;9.02;65.91;101383.19;5116745;28;20032;-33
2022/04/21 06:20:09;;;;;;;5.45;4.72;;;;;;;9.03;66.31;101377.63;5116621;28;20051;-33
2022/04/21 06:22:34;;;;;;;6.38;4.65;;;;;;;9.12;66.74;101372.81;5117314;28;20023;-33
2022/04/21 06:25:00;;;;;;;6.23;4.77;;;;;;;9.28;65.74;101379.69;5116912;28;20482;-33
2022/04/21 06:27:26;;;;;;;6.80;4.87;;;;;;;9.26;66.16;101376.34;5116812;28;20043;-33
2022/04/21 06:29:51;;;;;;;6.70;4.40;;;;;;;9.40;66.40;101377.97;5116851;28;20020;-33
2022/04/21 06:32:16;;;;;;;6.17;4.47;;;;;;;9.50;65.17;101364.88;5116495;28;20026;-33
2022/04/21 06:34:42;;;;;;;4.23;3.83;;;;;;;9.69;65.22;101376.66;5115470;28;20264;-33
2022/04/21 06:37:07;;;;;;;6.80;4.70;;;;;;;9.78;65.02;101374.56;5116766;28;20487;-33
2022/04/21 06:39:32;;;;;;;5.00;4.20;;;;;;;9.93;63.97;101379.72;5116309;28;20083;-33
2022/04/21 06:41:58;;;;;;;5.27;3.73;;;;;;;9.90;63.77;101361.22;5116460;28;20034;-33
2022/04/21 06:49:50;;;;;;;5.55;4.38;;;;;;;10.14;62.63;101362.38;5116099;28;20035;-33
2022/04/21 06:52:16;;;;;;;7.60;4.30;;;;;;;10.27;62.24;101362.34;5115529;28;20028;-33
2022/04/21 06:54:41;;;;;;;4.93;3.93;;;;;;;10.27;62.56;101349.66;5115726;28;20032;-34
2022/04/21 06:57:06;;;;;;;8.60;3.90;;;;;;;10.39;61.47;101360.59;5116005;28;20032;-33
2022/04/21 06:59:32;;;;;;;5.50;4.50;;;;;;;10.51;62.35;101363.44;5115906;28;20028;-33
2022/04/21 07:01:57;;;;;;;6.80;4.20;;;;;;;10.60;62.58;101355.91;5116350;28;20027;-34
2022/04/21 07:04:22;;;;;;;5.80;4.03;;;;;;;10.72;61.63;101354.97;5115990;28;20076;-33
2022/04/21 07:06:48;;;;;;;6.07;3.93;;;;;;;10.75;61.70;101349.13;5116299;28;20116;-33
2022/04/21 07:09:13;;;;;;;6.63;4.85;;;;;;;10.90;61.16;101353.41;5115627;28;20047;-33
2022/04/21 07:11:39;;;;;;;9.70;6.83;;;;;;;10.98;60.92;101342.28;5115692;28;20028;-34
2022/04/21 07:14:05;;;;;;;7.67;4.57;;;;;;;11.08;61.09;101356.16;5116074;28;20077;-33
2022/04/21 07:16:30;;;;;;;6.88;4.00;;;;;;;11.17;60.64;101353.97;5115704;28;20078;-34
2022/04/21 07:18:56;;;;;;;7.35;4.20;;;;;;;11.24;60.65;101362.88;5115209;28;20023;-33
2022/04/21 07:21:21;;;;;;;5.73;4.77;;;;;;;11.33;60.70;101351.53;5115792;28;20180;-33
2022/04/21 07:23:46;;;;;;;6.38;3.45;;;;;;;11.39;59.01;101360.66;5115158;28;20081;-33
2022/04/21 07:26:12;;;;;;;5.43;4.07;;;;;;;11.52;59.48;101354.28;5116087;28;20028;-34
2022/04/21 07:28:38;;;;;;;4.68;3.70;;;;;;;11.59;59.04;101358.56;5115636;28;20460;-33
2022/04/21 07:31:04;;;;;;;4.35;3.78;;;;;;;11.75;59.33;101361.72;5115650;28;20373;-34
2022/04/21 07:33:29;;;;;;;7.15;3.97;;;;;;;11.77;58.82;101362.31;5115291;28;20051;-33
2022/04/21 07:35:55;;;;;;;5.77;3.97;;;;;;;11.86;58.48;101366.44;5115661;28;20031;-33
2022/04/21 07:38:21;;;;;;;4.67;3.80;;;;;;;11.75;56.82;101365.25;5115573;28;20269;-33
2022/04/21 07:40:50;;;;;;;3.60;3.25;;;;;;;11.58;56.27;101348.78;5114953;28;20026;-33
2022/04/21 07:43:16;;;;;;;6.07;3.95;;;;;;;11.82;57.27;101365.22;5114848;28;20450;-33
2022/04/21 07:45:41;;;;;;;4.88;3.10;;;;;;;11.96;56.90;101366.72;5115515;28;20107;-33
2022/04/21 07:48:07;;;;;;;4.90;3.60;;;;;;;11.88;56.47;101352.63;5115086;28;20027;-33
2022/04/21 07:50:33;;;;;;;4.18;3.03;;;;;;;11.98;56.79;101355.63;5114940;28;20303;-33
2022/04/21 07:53:14;;;;;;;;;;;;;;;12.17;57.63;101367.28;5115372;28;20476;-33
2022/04/21 07:55:44;;;;;;;6.47;3.30;;;;;;;12.32;57.29;101368.53;5114662;28;19957;-33
2022/04/21 07:58:09;;;;;;;3.70;3.33;;;;;;;12.44;56.38;101365.03;5115029;28;20111;-33
2022/04/21 08:00:36;;;;;;;6.30;3.13;;;;;;;12.30;56.07;101340.81;5114527;28;20539;-33
2022/04/21 08:03:03;;;;;;;6.47;3.28;;;;;;;12.35;55.96;101367.25;5114471;28;20059;-33
2022/04/21 08:05:28;;;;;;;5.47;3.17;;;;;;;12.35;56.50;101365.38;5112815;28;20356;-33
2022/04/21 08:07:53;;;;;;;4.90;3.33;;;;;;;12.52;57.22;101367.41;5112946;28;20040;-33
2022/04/21 08:10:20;;;;;;;5.90;3.40;;;;;;;12.65;56.78;101371.84;5115180;28;20341;-33
2022/04/21 08:12:47;;;;;;;3.65;3.25;;;;;;;12.66;56.21;101368.06;5114551;28;20022;-33
2022/04/21 08:15:26;;;;;;;8.48;3.85;;;;;;;12.67;55.82;101367.00;5115329;28;20110;-33
2022/04/21 08:17:56;;;;;;;3.28;2.75;;;;;;;12.79;55.63;101357.00;5114770;28;20039;-33
2022/04/21 08:20:23;;;;;;;6.22;4.28;;;;;;;12.85;56.28;101356.88;5114616;28;20589;-33
2022/04/21 08:22:49;;;;;;;3.95;3.28;;;;;;;12.87;54.37;101362.06;5114479;28;20031;-33
2022/04/21 08:33:26;;;;;;;3.25;2.72;;;;;;;13.39;56.67;101370.41;5114206;28;20502;-33
2022/04/21 08:35:58;;;;;;;6.10;2.65;;;;;;;13.30;55.08;101364.50;5114463;28;20023;-34
2022/04/21 08:38:27;;;;;;;6.95;2.88;;;;;;;13.34;55.30;101354.81;5114102;28;20028;-34
2022/04/21 08:41:10;;;;;;;5.70;2.90;;;;;;;13.41;55.28;101362.84;5114543;28;20031;-34
2022/04/21 08:43:36;;;;;;;3.47;2.80;;;;;;;13.28;55.04;101346.81;5113836;28;20027;-34
2022/04/21 08:46:03;;;;;;;3.50;2.30;;;;;;;13.39;55.48;101359.53;5114605;28;20026;-34
2022/04/21 08:48:29;;;;;;;4.57;2.65;;;;;;;13.59;55.43;101359.16;5113644;28;20039;-34
2022/04/21 08:50:55;;;;;;;;;;;;;;;13.68;54.02;101356.91;5115164;28;20023;-34
2022/04/21 08:53:24;;;;;;;2.90;2.30;;;;;;;13.84;55.30;101351.56;5114174;28;19952;-34
2022/04/21 08:55:51;;;;;;;4.63;2.28;;;;;;;13.84;53.49;101335.25;5114060;28;20036;-34
2022/04/21 08:58:17;;;;;;;4.75;2.35;;;;;;;14.01;52.69;101353.53;5114045;28;20020;-34
2022/04/21 09:00:44;;;;;;;4.72;2.40;;;;;;;13.93;51.56;101332.97;5114029;28;20125;-35
2022/04/21 09:03:11;;;;;;;4.80;2.80;;;;;;;14.05;52.28;101341.91;5114373;28;20099;-33
2022/04/21 09:05:37;;;;;;;3.88;2.45;;;;;;;14.13;52.55;101344.25;5114292;28;20055;-34
2022/04/21 09:08:03;;;;;;;;;;;;;;;14.36;52.58;101343.34;5114167;28;20144;-34
2022/04/21 09:10:31;;;;;;;3.97;2.00;;;;;;;14.33;51.33;101340.25;5114490;28;20279;-33
2022/04/21 09:12:58;;;;;;;2.72;1.90;;;;;;;14.45;50.94;101346.50;5113626;28;20036;-34
2022/04/21 09:15:27;;;;;;;2.28;1.98;;;;;;;14.61;49.12;101348.44;5113395;28;20051;-34
2022/04/21 09:17:58;;;;;;;3.47;1.95;;;;;;;14.55;48.42;101345.88;5112472;28;20019;-34
2022/04/21 09:20:33;;;;;;;2.65;2.42;;;;;;;14.50;49.22;101348.50;5113940;28;20047;-34
2022/04/21 09:23:00;;;;;;;3.05;1.98;;;;;;;14.63;48.53;101335.38;5113262;28;20032;-34
2022/04/21 09:25:31;;;;;;;3.45;2.42;;;;;;;14.50;48.80;101329.47;5113998;28;20364;-35
2022/04/21 09:27:58;;;;;;;4.53;2.10;;;;;;;14.85;50.29;101326.50;5113735;28;20026;-34
2022/04/21 09:30:24;;;;;;;2.88;2.25;;;;;;;14.96;47.83;101324.78;5113542;28;20134;-34
2022/04/21 09:32:52;;;;;;;3.58;1.90;;;;;;;14.94;46.05;101325.03;5113560;28;20352;-38
2022/04/21 09:35:18;;;;;;;3.38;2.20;;;;;;;14.77;45.16;101316.84;5114204;28;20031;-34
2022/04/21 09:37:48;;;;;;;;;;;;;;;15.08;46.24;101320.03;5114082;28;20034;-35
2022/04/21 09:40:15;;;;;;;3.30;1.98;;;;;;;15.22;45.38;101325.97;5114130;28;20252;-34
2022/04/21 09:42:41;;;;;;;2.22;1.55;;;;;;;15.18;42.48;101321.03;5113328;28;20031;-34
2022/04/21 09:47:56;;;;;;;1.80;1.30;;;;;;;15.46;40.07;101320.06;5112814;28;19957;-34
2022/04/21 09:50:24;;;;;;;4.10;1.30;;;;;;;15.33;38.83;101311.44;5113332;28;20460;-34
2022/04/21 09:52:52;;;;;;;2.97;1.23;;;;;;;15.42;38.43;101313.47;5113333;28;20337;-35
2022/04/21 09:55:24;;;;;;;2.28;1.20;;;;;;;15.62;41.75;101314.84;5113161;28;20422;-34
2022/04/21 09:57:51;;;;;;;9.20;1.10;;;;;;;15.60;37.94;101317.78;5113245;28;20110;-34
2022/04/21 10:00:21;;;;;;;1.23;1.10;;;;;;;15.49;37.58;101313.28;5113705;28;20023;-34
2022/04/21 10:02:49;;;;;;;2.38;1.15;;;;;;;15.60;38.35;101314.25;5113259;28;20028;-34
2022/04/21 10:05:16;;;;;;;1.85;1.38;;;;;;;15.49;38.76;101310.56;5112449;28;20421;-34
2022/04/21 10:07:43;;;;;;;1.30;1.13;;;;;;;15.76;38.60;101310.66;5113151;28;20038;-33
2022/04/21 10:10:10;;;;;;;3.72;1.20;;;;;;;15.74;38.23;101291.00;5113635;28;20027;-34
2022/04/21 10:12:36;;;;;;;1.33;0.95;;;;;;;15.85;37.85;101300.94;5113600;28;20380;-34
2022/04/21 10:15:01;;;;;;;;;;;;;;;15.96;36.04;101296.47;5113810;28;20032;-34
2022/04/21 10:17:27;;;;;;;3.78;1.35;;;;;;;15.81;37.18;101288.06;5112831;28;19915;-34
2022/04/21 10:19:52;;;;;;;;;;;;;;;16.10;37.90;101289.50;5113794;28;20035;-34
2022/04/21 10:22:19;;;;;;;1.88;0.95;;;;;;;15.87;36.63;101278.91;5113203;28;19911;-34
2022/04/21 10:24:46;;;;;;;2.55;1.30;;;;;;;15.86;38.90;101280.81;5113494;28;20028;-34
2022/04/21 10:27:33;;;;;;;3.08;1.25;;;;;;;15.99;37.00;101274.09;5113007;28;20038;-34
2022/04/21 10:29:58;;;;;;;;;;;;;;;16.17;36.25;101289.31;5117142;28;20034;-34
2022/04/21 10:32:51;;;;;;;1.52;0.95;;;;;;;16.37;36.21;101281.31;5116765;28;19991;-34
2022/04/21 10:35:46;;;;;;;4.53;1.20;;;;;;;16.20;34.85;101288.78;5117390;28;20102;-34
2022/04/21 10:38:14;;;;;;;1.95;1.20;;;;;;;16.20;35.33;101273.25;5073714;28;20047;-34
2022/04/21 10:40:58;;;;;;;3.28;1.00;;;;;;;16.37;34.82;101270.41;5073648;28;20123;-35
2022/04/21 10:43:24;;;;;;;2.00;1.20;;;;;;;16.42;36.22;101273.16;5073673;28;20120;-35
2022/04/21 10:46:17;;;;;;;1.63;1.00;;;;;;;16.68;36.15;101268.72;5073449;28;20456;-34
2022/04/21 10:48:43;;;;;;;2.33;1.20;;;;;;;16.68;35.57;101260.53;5073494;28;20468;-35
2022/04/21 10:51:09;;;;;;;3.15;1.10;;;;;;;16.37;36.17;101223.19;5073351;28;20028;-35
2022/04/21 10:59:48;;;;;;;5.20;1.38;;;;;;;16.70;36.03;101249.38;5073870;28;20062;-34
2022/04/21 11:02:14;;;;;;;1.73;1.17;;;;;;;16.96;36.93;101247.66;5073112;28;20040;-34
2022/04/21 11:04:39;;;;;;;;;;;;;;;17.23;37.09;101248.38;5073352;28;20450;-35
2022/04/21 11:07:06;;;;;;;3.05;1.30;;;;;;;17.04;34.38;101249.09;5073476;28;19978;-35
2022/04/21 11:09:42;;;;;;;2.03;1.15;;;;;;;17.35;37.93;101234.47;5073008;28;20123;-35
2022/04/21 11:12:10;;;;;;;1.58;1.20;;;;;;;17.29;34.25;101248.41;5056366;28;20068;-34
2022/04/21 11:14:37;;;;;;;3.08;1.20;;;;;;;17.24;34.57;101241.81;5086326;28;20176;-34
2022/04/21 11:17:05;;;;;;;2.65;1.30;;;;;;;17.15;34.35;101239.84;5115896;28;20024;-35
2022/04/21 11:19:31;;;;;;;2.00;1.35;;;;;;;17.28;35.17;101239.38;5115977;28;20058;-34
2022/04/21 11:22:05;;;;;;;4.38;1.95;;;;;;;17.28;35.82;101225.72;5116243;28;20181;-35
2022/04/21 11:24:55;;;;;;;3.53;1.42;;;;;;;17.29;35.35;101221.88;5115843;28;20027;-34
2022/04/21 11:27:24;;;;;;;1.70;1.27;;;;;;;17.33;34.40;101228.47;5116003;28;20030;-35
2022/04/21 11:29:50;;;;;;;2.03;1.10;;;;;;;17.30;35.02;101226.25;5115503;28;20042;-34
2022/04/21 11:32:16;;;;;;;;;;;;;;;17.59;35.01;101210.25;5116106;28;20031;-35
2022/04/21 11:34:42;;;;;;;;;;;;;;;17.79;35.57;101220.44;5115847;28;19911;-34
2022/04/21 11:37:08;;;;;;;;;;;;;;;17.85;35.16;101213.06;5116334;28;19912;-34
2022/04/21 11:39:37;;;;;;;;;;;;;;;17.83;33.41;101209.78;5115729;28;20303;-34
2022/04/21 11:42:03;;;;;;;;;;;;;;;17.70;33.16;101203.69;5116412;28;20019;-35
2022/04/21 11:44:28;;;;;;;;;;;;;;;17.85;34.59;101202.94;5115261;28;20026;-34
2022/04/21 11:46:53;;;;;;;;;;;;;;;17.86;33.28;101198.28;5116401;28;19972;-35
2022/04/21 11:49:19;;;;;;;;;;;;;;;17.98;33.96;101196.13;5115854;28;19978;-34
2022/04/21 11:51:44;;;;;;;;;;;;;;;17.89;32.86;101201.31;5115746;28;19912;-34
2022/04/21 11:54:10;;;;;;;;;;;;;;;18.07;33.67;101197.25;5115630;28;20321;-35
2022/04/21 11:56:36;;;;;;;;;;;;;;;18.16;32.79;101192.88;5115758;28;19915;-34
2022/04/21 11:59:08;;;;;;;;;;;;;;;18.21;32.41;101198.34;5115108;28;19968;-35
2022/04/21 12:07:03;;;;;;;;;;;;;;;18.61;33.89;101188.47;5115885;28;20011;-35
2022/04/21 12:09:33;;;;;;;;;;;;;;;18.56;33.40;101180.25;5115153;28;19912;-35
2022/04/21 12:11:59;;;;;;;;;;;;;;;18.53;32.87;101181.59;5116035;27;19912;-35
2022/04/21 12:14:25;;;;;;;;;;;;;;;18.65;33.13;101181.34;5115138;28;19934;-34
2022/04/21 12:16:53;;;;;;;;;;;;;;;18.76;32.74;101176.69;5115086;28;19912;-35
2022/04/21 12:19:19;;;;;;;;;;;;;;;18.71;32.98;101173.97;5114665;28;19918;-35
2022/04/21 12:21:54;;;;;;;;;;;;;;;18.44;31.38;101183.25;5115323;28;20346;-35
2022/04/21 12:24:19;;;;;;;;;;;;;;;17.92;32.25;101183.56;5115211;28;20052;-35
2022/04/21 12:26:48;;;;;;;;;;;;;;;17.94;32.99;101178.63;5114901;28;20309;-35
2022/04/21 12:29:13;;;;;;;;;;;;;;;18.10;33.40;101171.22;5115348;28;19911;-35